createdAt,value
2019-02-07T00:00:47.029Z,1.80
2019-02-07T00:03:17.843Z,1.90
2019-02-07T00:05:47.090Z,1.90
2019-02-07T00:08:16.342Z,2.00
2019-02-07T00:10:45.879Z,2.00
2019-02-07T00:13:15.156Z,1.90
2019-02-07T00:15:44.411Z,1.90
2019-02-07T00:18:14.030Z,1.90
2019-02-07T00:20:43.855Z,1.90
2019-02-07T00:23:13.099Z,1.80
2019-02-07T00:25:42.347Z,1.80
2019-02-07T00:28:11.702Z,1.60
2019-02-07T00:30:42.024Z,1.60
2019-02-07T00:33:11.823Z,1.70
2019-02-07T00:35:41.071Z,1.60
2019-02-07T00:38:11.627Z,1.50
2019-02-07T00:40:40.994Z,1.40
2019-02-07T00:43:10.247Z,1.40
2019-02-07T00:45:39.567Z,1.40
2019-02-07T00:48:08.806Z,1.40
2019-02-07T00:50:39.132Z,1.50
2019-02-07T00:53:08.588Z,1.50
2019-02-07T00:55:37.840Z,1.50
2019-02-07T00:58:07.571Z,1.50
2019-02-07T01:00:37.082Z,1.50
2019-02-07T01:03:06.723Z,1.50
2019-02-07T01:05:35.971Z,1.50
2019-02-07T01:08:05.591Z,1.40
2019-02-07T01:10:35.219Z,1.40
2019-02-07T01:13:04.909Z,1.30
2019-02-07T01:15:34.155Z,1.30
2019-02-07T01:18:05.143Z,1.20
2019-02-07T01:20:34.396Z,1.20
2019-02-07T01:23:03.651Z,1.10
2019-02-07T01:25:32.927Z,1.20
2019-02-07T01:28:02.500Z,1.20
2019-02-07T01:30:31.739Z,1.20
2019-02-07T01:33:01.023Z,1.20
2019-02-07T01:35:31.924Z,1.20
2019-02-07T01:38:01.171Z,1.20
2019-02-07T01:40:30.595Z,1.30
2019-02-07T01:42:59.842Z,1.30
2019-02-07T01:45:29.466Z,1.40
2019-02-07T01:47:59.075Z,1.40
2019-02-07T01:50:28.464Z,1.30
2019-02-07T01:52:57.863Z,1.40
2019-02-07T01:55:27.403Z,1.40
2019-02-07T01:57:56.655Z,1.40
2019-02-07T02:00:25.912Z,1.50
2019-02-07T02:02:55.164Z,1.50
2019-02-07T02:05:24.419Z,1.40
2019-02-07T02:07:53.707Z,1.40
2019-02-07T02:10:27.840Z,1.40
2019-02-07T02:12:59.075Z,1.40
2019-02-07T02:15:28.318Z,1.30
2019-02-07T02:17:58.025Z,1.30
2019-02-07T02:20:27.475Z,1.30
2019-02-07T02:22:56.881Z,1.30
2019-02-07T02:25:26.137Z,1.40
2019-02-07T02:27:55.387Z,1.40
2019-02-07T02:30:30.004Z,1.40
2019-02-07T02:32:59.237Z,1.50
2019-02-07T02:35:28.539Z,1.50
2019-02-07T02:37:58.690Z,1.40
2019-02-07T02:40:27.932Z,1.50
2019-02-07T02:42:57.223Z,1.50
2019-02-07T02:45:37.043Z,1.60
2019-02-07T02:47:57.620Z,1.70
2019-02-07T02:50:26.873Z,1.70
2019-02-07T02:52:56.127Z,1.90
2019-02-07T02:55:28.117Z,2.00
2019-02-07T02:57:57.438Z,2.10
2019-02-07T03:00:28.322Z,2.10
2019-02-07T03:03:02.245Z,2.10
2019-02-07T03:05:43.755Z,2.20
2019-02-07T03:08:26.863Z,2.20
2019-02-07T03:11:01.173Z,2.20
2019-02-07T03:13:48.866Z,2.20
2019-02-07T03:16:29.010Z,2.20
2019-02-07T03:19:03.174Z,2.10
2019-02-07T03:21:50.061Z,2.10
2019-02-07T03:24:39.830Z,2.10
2019-02-07T03:27:19.756Z,2.10
2019-02-07T03:29:56.340Z,2.10
2019-02-07T03:32:45.303Z,2.10
2019-02-07T03:35:22.147Z,2.10
2019-02-07T03:38:02.599Z,2.10
2019-02-07T03:40:50.704Z,2.10
2019-02-07T03:43:24.518Z,2.10
2019-02-07T03:46:02.955Z,2.10
2019-02-07T03:48:31.063Z,2.00
2019-02-07T03:51:01.957Z,2.10
2019-02-07T03:53:50.824Z,2.00
2019-02-07T03:56:38.342Z,2.00
2019-02-07T03:59:09.372Z,2.00
2019-02-07T04:01:40.270Z,2.00
2019-02-07T04:04:20.082Z,2.00
2019-02-07T04:06:50.972Z,2.00
2019-02-07T04:09:22.862Z,2.00
2019-02-07T04:12:02.611Z,2.00
2019-02-07T04:14:39.544Z,2.00
2019-02-07T04:17:10.707Z,2.00
2019-02-07T04:19:56.643Z,1.90
2019-02-07T04:22:30.408Z,1.90
2019-02-07T04:25:01.972Z,1.90
2019-02-07T04:27:38.964Z,1.90
2019-02-07T04:30:13.719Z,2.00
2019-02-07T04:33:02.880Z,2.00
2019-02-07T04:35:37.014Z,2.10
2019-02-07T04:38:07.904Z,2.00
2019-02-07T04:40:55.940Z,2.10
2019-02-07T04:43:26.832Z,2.00
2019-02-07T04:46:00.963Z,2.00
2019-02-07T04:48:32.038Z,2.00
2019-02-07T04:51:12.191Z,2.00
2019-02-07T04:53:51.967Z,2.00
2019-02-07T04:56:33.918Z,2.00
2019-02-07T04:59:08.276Z,2.00
2019-02-07T05:01:39.544Z,2.00
2019-02-07T05:04:28.883Z,2.00
2019-02-07T05:07:02.946Z,2.00
2019-02-07T05:09:33.843Z,2.10
2019-02-07T05:12:11.284Z,2.00
2019-02-07T05:14:42.175Z,2.00
2019-02-07T05:17:28.486Z,2.10
2019-02-07T05:20:15.591Z,2.00
2019-02-07T05:22:49.485Z,2.10
2019-02-07T05:25:32.732Z,2.10
2019-02-07T05:28:04.320Z,2.10
2019-02-07T05:30:40.966Z,2.10
2019-02-07T05:33:11.902Z,2.10
2019-02-07T05:35:45.756Z,2.10
2019-02-07T05:38:19.668Z,2.10
2019-02-07T05:40:52.470Z,2.10
2019-02-07T05:43:24.390Z,2.10
2019-02-07T05:45:58.940Z,2.10
2019-02-07T05:48:46.602Z,2.20
2019-02-07T05:51:20.445Z,2.20
2019-02-07T05:54:07.938Z,2.20
2019-02-07T05:56:41.530Z,2.20
2019-02-07T05:59:29.902Z,2.20
2019-02-07T06:02:03.979Z,2.20
2019-02-07T06:04:40.875Z,2.20
2019-02-07T06:07:14.610Z,2.20
2019-02-07T06:09:49.045Z,2.10
2019-02-07T06:12:22.790Z,2.20
2019-02-07T06:14:54.355Z,2.20
2019-02-07T06:17:41.819Z,2.20
2019-02-07T06:20:18.972Z,2.10
2019-02-07T06:23:06.218Z,2.20
2019-02-07T06:25:42.920Z,2.10
2019-02-07T06:28:13.811Z,2.10
2019-02-07T06:30:45.094Z,2.10
2019-02-07T06:33:33.009Z,2.10
2019-02-07T06:36:13.131Z,2.10
2019-02-07T06:38:44.074Z,2.10
2019-02-07T06:41:31.893Z,2.10
2019-02-07T06:44:18.568Z,2.10
2019-02-07T06:46:56.244Z,2.10
2019-02-07T06:49:44.026Z,2.10
2019-02-07T06:52:20.894Z,2.10
2019-02-07T06:55:08.874Z,2.10
2019-02-07T06:57:56.341Z,2.10
2019-02-07T07:00:27.259Z,2.10
2019-02-07T07:03:03.982Z,2.10
2019-02-07T07:05:51.893Z,2.10
2019-02-07T07:08:39.111Z,2.00
2019-02-07T07:11:12.700Z,2.10
2019-02-07T07:13:46.279Z,2.10
2019-02-07T07:16:33.771Z,2.10
2019-02-07T07:19:08.584Z,2.10
2019-02-07T07:21:56.896Z,2.10
2019-02-07T07:24:44.330Z,2.20
2019-02-07T07:27:31.514Z,2.20
2019-02-07T07:30:02.479Z,2.20
2019-02-07T07:32:49.601Z,2.20
2019-02-07T07:35:36.575Z,2.30
2019-02-07T07:38:08.800Z,2.30
2019-02-07T07:40:46.198Z,2.40
2019-02-07T07:43:20.581Z,2.40
2019-02-07T07:45:54.158Z,2.50
2019-02-07T07:48:27.811Z,2.60
2019-02-07T07:51:02.031Z,2.60
2019-02-07T07:53:45.623Z,2.60
2019-02-07T07:56:32.989Z,2.70
2019-02-07T07:59:20.555Z,2.70
2019-02-07T08:01:57.360Z,2.70
2019-02-07T08:04:31.007Z,2.80
2019-02-07T08:07:02.304Z,2.80
2019-02-07T08:09:37.011Z,2.90
2019-02-07T08:12:07.898Z,3.10
2019-02-07T08:14:44.655Z,3.20
2019-02-07T08:17:32.403Z,3.20
2019-02-07T08:20:03.347Z,3.10
2019-02-07T08:22:49.559Z,3.10
2019-02-07T08:25:22.250Z,3.10
2019-02-07T08:28:09.606Z,3.10
2019-02-07T08:30:49.619Z,3.20
2019-02-07T08:33:29.311Z,3.30
2019-02-07T08:36:00.548Z,3.30
2019-02-07T08:38:37.621Z,3.30
2019-02-07T08:41:26.031Z,3.40
2019-02-07T08:44:13.983Z,3.40
2019-02-07T08:46:49.652Z,3.40
2019-02-07T08:49:37.087Z,3.40
2019-02-07T08:52:08.015Z,3.50
2019-02-07T08:54:47.852Z,3.50
2019-02-07T08:57:22.224Z,3.40
2019-02-07T08:59:53.427Z,3.40
2019-02-07T09:02:36.363Z,3.40
2019-02-07T09:05:17.504Z,3.30
2019-02-07T09:07:57.275Z,3.30
2019-02-07T09:10:44.726Z,3.30
2019-02-07T09:13:28.767Z,3.30
2019-02-07T09:16:05.885Z,3.20
2019-02-07T09:18:51.608Z,3.10
2019-02-07T09:21:40.024Z,3.00
2019-02-07T09:24:10.942Z,2.90
2019-02-07T09:26:58.154Z,2.80
2019-02-07T09:29:32.030Z,2.80
2019-02-07T09:32:19.159Z,2.80
2019-02-07T09:34:58.870Z,2.80
2019-02-07T09:37:47.853Z,2.80
2019-02-07T09:40:21.223Z,2.80
2019-02-07T09:42:52.111Z,2.80
2019-02-07T09:45:34.883Z,3.00
2019-02-07T09:48:08.792Z,3.00
2019-02-07T09:50:39.786Z,3.00
2019-02-07T09:53:25.846Z,3.10
2019-02-07T09:56:13.039Z,3.00
2019-02-07T09:58:50.020Z,3.00
2019-02-07T10:01:45.339Z,3.00
2019-02-07T10:04:32.455Z,3.00
2019-02-07T10:07:06.255Z,2.90
2019-02-07T10:09:40.202Z,3.00
2019-02-07T10:12:27.786Z,3.10
2019-02-07T10:15:16.912Z,3.10
2019-02-07T10:17:49.430Z,3.20
2019-02-07T10:20:39.128Z,3.10
2019-02-07T10:23:25.095Z,3.10
2019-02-07T10:25:56.284Z,3.10
2019-02-07T10:28:39.062Z,3.10
2019-02-07T10:31:26.078Z,3.20
2019-02-07T10:34:10.143Z,3.10
2019-02-07T10:36:50.270Z,3.10
2019-02-07T10:39:24.314Z,3.20
2019-02-07T10:41:58.356Z,3.30
2019-02-07T10:44:30.175Z,3.40
2019-02-07T10:47:20.010Z,3.30
2019-02-07T10:49:59.346Z,3.30
2019-02-07T10:52:32.446Z,3.30
2019-02-07T10:55:18.725Z,3.30
2019-02-07T10:57:58.640Z,3.30
2019-02-07T11:00:32.890Z,3.30
2019-02-07T11:03:15.919Z,3.30
2019-02-07T11:05:54.590Z,3.30
2019-02-07T11:08:43.747Z,3.20
2019-02-07T11:11:17.626Z,3.20
2019-02-07T11:13:48.521Z,3.10
2019-02-07T11:16:32.514Z,3.10
2019-02-07T11:19:21.341Z,3.10
2019-02-07T11:21:57.796Z,3.20
2019-02-07T11:24:45.133Z,3.20
2019-02-07T11:27:16.963Z,3.20
2019-02-07T11:29:50.853Z,3.20
2019-02-07T11:32:21.775Z,3.20
2019-02-07T11:35:09.199Z,3.30
2019-02-07T11:37:40.639Z,3.20
2019-02-07T11:40:13.768Z,3.20
2019-02-07T11:42:48.615Z,3.20
2019-02-07T11:45:36.204Z,3.10
2019-02-07T11:48:23.759Z,3.10
2019-02-07T11:50:57.400Z,3.10
2019-02-07T11:53:31.608Z,3.00
2019-02-07T11:56:18.942Z,3.00
2019-02-07T11:59:08.323Z,3.00
2019-02-07T12:01:51.445Z,3.10
2019-02-07T12:04:25.067Z,3.00
2019-02-07T12:06:55.938Z,3.10
2019-02-07T12:09:30.531Z,3.20
2019-02-07T12:12:17.818Z,3.30
2019-02-07T12:14:54.707Z,3.40
2019-02-07T12:17:31.656Z,3.50
2019-02-07T12:20:11.698Z,3.70
2019-02-07T12:23:00.273Z,3.70
2019-02-07T12:25:48.572Z,3.60
2019-02-07T12:28:31.733Z,3.50
2019-02-07T12:31:08.896Z,3.50
2019-02-07T12:33:42.723Z,3.70
2019-02-07T12:36:32.064Z,3.70
2019-02-07T12:39:05.843Z,3.60
2019-02-07T12:41:54.434Z,3.70
2019-02-07T12:44:28.035Z,3.70
2019-02-07T12:47:15.687Z,3.90
2019-02-07T12:50:03.487Z,4.10
2019-02-07T12:52:43.361Z,4.00
2019-02-07T12:55:30.114Z,4.10
2019-02-07T12:58:13.207Z,4.10
2019-02-07T13:00:45.362Z,4.10
2019-02-07T13:03:16.290Z,4.10
2019-02-07T13:05:47.174Z,4.10
2019-02-07T13:08:33.089Z,4.10
2019-02-07T13:11:07.319Z,4.10
2019-02-07T13:13:48.834Z,4.20
2019-02-07T13:16:25.666Z,4.10
2019-02-07T13:19:12.908Z,4.10
2019-02-07T13:21:46.543Z,4.00
2019-02-07T13:24:29.500Z,3.90
2019-02-07T13:27:16.712Z,3.90
2019-02-07T13:29:57.932Z,4.00
2019-02-07T13:32:37.949Z,4.00
2019-02-07T13:35:25.639Z,3.90
2019-02-07T13:37:56.535Z,4.20
2019-02-07T13:40:27.554Z,4.70
2019-02-07T13:43:00.194Z,4.90
2019-02-07T13:45:43.857Z,4.90
2019-02-07T13:48:29.683Z,4.60
2019-02-07T13:51:18.643Z,4.50
2019-02-07T13:53:49.532Z,4.50
2019-02-07T13:56:23.450Z,4.40
2019-02-07T13:58:54.347Z,4.30
2019-02-07T14:01:28.194Z,4.20
2019-02-07T14:04:04.985Z,4.30
2019-02-07T14:06:38.779Z,4.40
2019-02-07T14:09:25.854Z,4.60
2019-02-07T14:11:59.768Z,5.00
2019-02-07T14:14:33.586Z,5.30
2019-02-07T14:17:11.639Z,5.70
2019-02-07T14:19:42.527Z,6.00
2019-02-07T14:22:30.263Z,6.80
2019-02-07T14:25:01.146Z,7.40
2019-02-07T14:27:41.879Z,7.10
2019-02-07T14:30:14.208Z,7.00
2019-02-07T14:32:45.535Z,6.60
2019-02-07T14:35:25.596Z,6.30
2019-02-07T14:38:05.506Z,6.20
2019-02-07T14:40:48.207Z,6.00
2019-02-07T14:43:22.295Z,5.30
2019-02-07T14:45:53.186Z,5.10
2019-02-07T14:48:24.647Z,4.80
2019-02-07T14:50:53.891Z,4.60
2019-02-07T14:53:23.813Z,4.50
2019-02-07T14:55:53.079Z,4.70
2019-02-07T14:58:22.331Z,4.90
2019-02-07T15:00:51.587Z,5.30
2019-02-07T15:03:20.963Z,5.60
2019-02-07T15:05:50.335Z,5.80
2019-02-07T15:08:19.594Z,5.90
2019-02-07T15:10:48.838Z,5.80
2019-02-07T15:13:18.099Z,5.60
2019-02-07T15:15:47.338Z,5.50
2019-02-07T15:18:16.944Z,5.30
2019-02-07T15:20:46.571Z,5.60
2019-02-07T15:23:15.798Z,5.80
2019-02-07T15:25:45.050Z,5.70
2019-02-07T15:28:14.300Z,5.60
2019-02-07T15:30:43.590Z,5.30
2019-02-07T15:33:12.831Z,5.00
2019-02-07T15:35:46.135Z,4.90
2019-02-07T15:38:15.391Z,4.80
2019-02-07T15:40:44.643Z,4.40
2019-02-07T15:43:13.886Z,3.90
2019-02-07T15:45:43.135Z,3.70
2019-02-07T15:48:12.430Z,3.50
2019-02-07T15:50:41.720Z,3.50
2019-02-07T15:53:11.630Z,3.50
2019-02-07T15:55:42.742Z,3.60
2019-02-07T15:58:13.030Z,3.60
2019-02-07T16:00:43.933Z,3.40
2019-02-07T16:03:18.170Z,3.30
2019-02-07T16:05:47.491Z,3.20
2019-02-07T16:08:17.046Z,3.10
2019-02-07T16:10:46.295Z,3.10
2019-02-07T16:13:15.538Z,3.00
2019-02-07T16:15:46.322Z,3.00
2019-02-07T16:18:15.903Z,3.00
2019-02-07T16:20:48.870Z,3.00
2019-02-07T16:23:16.020Z,3.00
2019-02-07T16:25:45.271Z,2.90
2019-02-07T16:28:14.514Z,2.90
2019-02-07T16:30:43.759Z,2.90
2019-02-07T16:33:13.327Z,2.90
2019-02-07T16:35:42.579Z,2.90
2019-02-07T16:38:11.918Z,2.90
2019-02-07T16:40:41.175Z,2.90
2019-02-07T16:43:10.414Z,2.90
2019-02-07T16:45:39.695Z,2.90
2019-02-07T16:48:08.943Z,2.90
2019-02-07T16:50:38.196Z,2.90
2019-02-07T16:53:07.450Z,2.90
2019-02-07T16:55:36.699Z,2.90
2019-02-07T16:58:08.018Z,2.80
2019-02-07T17:00:37.787Z,2.90
2019-02-07T17:03:07.206Z,2.90
2019-02-07T17:05:37.937Z,2.90
2019-02-07T17:08:07.407Z,2.90
2019-02-07T17:10:41.483Z,2.80
2019-02-07T17:13:15.127Z,2.80
2019-02-07T17:15:44.416Z,2.90
2019-02-07T17:18:13.668Z,3.00
2019-02-07T17:20:42.990Z,3.00
2019-02-07T17:23:12.244Z,3.00
2019-02-07T17:25:41.562Z,2.90
2019-02-07T17:28:11.016Z,2.90
2019-02-07T17:30:40.264Z,2.90
2019-02-07T17:33:10.995Z,2.80
2019-02-07T17:35:40.244Z,2.80
2019-02-07T17:38:09.491Z,2.80
2019-02-07T17:40:38.854Z,2.80
2019-02-07T17:43:08.101Z,2.80
2019-02-07T17:45:37.425Z,2.70
2019-02-07T17:48:06.641Z,2.80
2019-02-07T17:50:37.590Z,2.80
2019-02-07T17:53:11.620Z,2.90
2019-02-07T17:55:40.958Z,2.90
2019-02-07T17:58:12.320Z,2.90
2019-02-07T18:01:01.911Z,2.90
2019-02-07T18:03:32.619Z,2.90
2019-02-07T18:06:02.826Z,2.90
2019-02-07T18:08:32.659Z,2.80
2019-02-07T18:11:02.254Z,2.80
2019-02-07T18:13:31.498Z,2.90
2019-02-07T18:16:00.815Z,2.90
2019-02-07T18:18:30.039Z,3.00
2019-02-07T18:20:59.282Z,3.10
2019-02-07T18:23:28.929Z,3.00
2019-02-07T18:25:58.175Z,3.00
2019-02-07T18:28:28.895Z,3.10
2019-02-07T18:30:58.134Z,3.10
2019-02-07T18:33:27.499Z,3.00
2019-02-07T18:35:56.756Z,3.00
2019-02-07T18:38:26.303Z,3.10
2019-02-07T18:40:56.655Z,3.10
2019-02-07T18:43:26.034Z,3.10
2019-02-07T18:45:55.282Z,3.20
2019-02-07T18:48:24.530Z,3.20
2019-02-07T18:50:53.770Z,3.20
2019-02-07T18:53:23.482Z,3.20
2019-02-07T18:55:52.730Z,3.20
2019-02-07T18:58:22.626Z,3.20
2019-02-07T19:00:51.881Z,3.20
2019-02-07T19:03:21.127Z,3.20
2019-02-07T19:05:51.216Z,3.10
2019-02-07T19:08:21.751Z,3.10
2019-02-07T19:10:50.987Z,3.00
2019-02-07T19:13:20.230Z,3.00
2019-02-07T19:15:52.591Z,3.00
2019-02-07T19:18:21.871Z,3.10
2019-02-07T19:20:51.115Z,3.10
2019-02-07T19:23:20.762Z,3.10
2019-02-07T19:25:51.084Z,3.10
2019-02-07T19:28:20.623Z,3.00
2019-02-07T19:30:49.923Z,3.00
2019-02-07T19:33:22.381Z,3.00
2019-02-07T19:35:50.047Z,3.00
2019-02-07T19:38:19.698Z,2.90
2019-02-07T19:40:48.947Z,2.90
2019-02-07T19:43:18.768Z,2.90
2019-02-07T19:45:48.019Z,2.90
2019-02-07T19:48:17.275Z,2.90
2019-02-07T19:50:46.518Z,2.90
2019-02-07T19:53:15.775Z,2.80
2019-02-07T19:55:45.020Z,2.80
2019-02-07T19:58:14.258Z,2.80
2019-02-07T20:00:45.214Z,2.80
2019-02-07T20:03:14.458Z,2.80
2019-02-07T20:05:43.707Z,2.80
2019-02-07T20:08:12.954Z,2.90
2019-02-07T20:10:42.207Z,2.90
2019-02-07T20:13:11.461Z,2.90
2019-02-07T20:15:42.650Z,2.90
2019-02-07T20:18:14.551Z,2.90
2019-02-07T20:20:43.817Z,2.90
2019-02-07T20:23:13.068Z,2.90
2019-02-07T20:25:42.619Z,3.00
2019-02-07T20:28:11.938Z,3.00
2019-02-07T20:30:43.966Z,3.10
2019-02-07T20:33:13.215Z,3.10
2019-02-07T20:35:42.452Z,3.00
2019-02-07T20:38:11.698Z,3.10
2019-02-07T20:40:40.942Z,3.10
2019-02-07T20:43:11.305Z,3.10
2019-02-07T20:45:40.550Z,3.10
2019-02-07T20:48:09.786Z,3.00
2019-02-07T20:50:39.202Z,3.10
2019-02-07T20:53:08.447Z,3.10
2019-02-07T20:55:37.699Z,3.10
2019-02-07T20:58:07.415Z,3.00
2019-02-07T21:00:40.222Z,3.00
2019-02-07T21:03:09.985Z,3.10
2019-02-07T21:05:39.546Z,3.10
2019-02-07T21:08:08.814Z,3.10
2019-02-07T21:10:41.332Z,3.10
2019-02-07T21:13:13.151Z,3.10
2019-02-07T21:15:42.503Z,3.10
2019-02-07T21:18:11.758Z,3.10
2019-02-07T21:20:42.086Z,3.10
2019-02-07T21:23:11.330Z,3.10
2019-02-07T21:25:43.602Z,3.10
2019-02-07T21:28:13.142Z,3.10
2019-02-07T21:30:42.386Z,3.10
2019-02-07T21:33:11.631Z,3.20
2019-02-07T21:35:40.878Z,3.20
2019-02-07T21:38:10.157Z,3.20
2019-02-07T21:40:39.767Z,3.20
2019-02-07T21:43:09.010Z,3.30
2019-02-07T21:45:38.258Z,3.30
2019-02-07T21:48:08.450Z,3.30
2019-02-07T21:50:37.693Z,3.20
2019-02-07T21:53:07.018Z,3.20
2019-02-07T21:55:37.640Z,3.20
2019-02-07T21:58:08.515Z,3.20
2019-02-07T22:00:40.029Z,3.20
2019-02-07T22:03:10.810Z,3.30
2019-02-07T22:05:42.587Z,3.40
2019-02-07T22:08:11.838Z,3.40
2019-02-07T22:10:41.156Z,3.40
2019-02-07T22:13:10.695Z,3.50
2019-02-07T22:15:39.940Z,3.50
2019-02-07T22:18:09.186Z,3.60
2019-02-07T22:20:38.431Z,3.70
2019-02-07T22:23:08.402Z,3.70
2019-02-07T22:25:37.647Z,3.60
2019-02-07T22:28:07.299Z,3.60
2019-02-07T22:30:37.275Z,3.60
2019-02-07T22:33:07.754Z,3.50
2019-02-07T22:35:37.044Z,3.50
2019-02-07T22:38:07.026Z,3.50
2019-02-07T22:40:36.275Z,3.50
2019-02-07T22:43:05.822Z,3.40
2019-02-07T22:45:36.134Z,3.50
2019-02-07T22:48:05.959Z,3.50
2019-02-07T22:50:35.208Z,3.50
2019-02-07T22:53:04.623Z,3.50
2019-02-07T22:55:34.783Z,3.50
2019-02-07T22:58:05.063Z,3.60
2019-02-07T23:00:39.202Z,3.60
2019-02-07T23:03:18.251Z,3.60
2019-02-07T23:05:47.998Z,3.70
2019-02-07T23:08:17.248Z,3.70
2019-02-07T23:10:46.799Z,3.60
2019-02-07T23:13:16.355Z,3.60
2019-02-07T23:15:45.727Z,3.60
2019-02-07T23:18:14.971Z,3.50
2019-02-07T23:20:44.228Z,3.50
2019-02-07T23:23:13.466Z,3.40
2019-02-07T23:25:43.094Z,3.40
2019-02-07T23:28:12.337Z,3.40
2019-02-07T23:30:41.583Z,3.30
2019-02-07T23:33:10.940Z,3.30
2019-02-07T23:35:40.183Z,3.20
2019-02-07T23:38:09.437Z,3.10
2019-02-07T23:40:39.070Z,3.10
2019-02-07T23:43:08.586Z,3.20
2019-02-07T23:45:37.835Z,3.20
2019-02-07T23:48:07.074Z,3.20
2019-02-07T23:50:36.343Z,3.20
2019-02-07T23:53:14.416Z,3.20
2019-02-07T23:55:38.182Z,3.10
2019-02-07T23:58:07.526Z,3.10
